Time;durP1;ratioP1;P1;durP2;ratioP2;P2;SDS_P1;SDS_P2;PMS_P1;PMS_P2;Temp;Humidity;BMP_temperature;BMP_pressure;BME280_temperature;BME280_humidity;BME280_pressure;Samples;Min_cycle;Max_cycle;Signal;HPM_P1;HPM_P2
2023/05/16 00:01:50;;;;;;;2.37;2.13;;;22.40;76.10;;;;;;4967181;28;20838;-50
2023/05/16 00:04:17;;;;;;;3.00;2.17;;;22.50;76.40;;;;;;4968835;28;20461;-46
2023/05/16 00:06:45;;;;;;;4.30;2.20;;;22.40;76.20;;;;;;4968224;28;20469;-45
2023/05/16 00:09:12;;;;;;;2.30;2.00;;;22.40;76.20;;;;;;4967830;28;20489;-46
2023/05/16 00:11:38;;;;;;;2.60;2.30;;;22.40;76.20;;;;;;4963224;28;20468;-47
2023/05/16 00:14:06;;;;;;;2.10;1.90;;;22.40;76.30;;;;;;4970270;28;20462;-47
2023/05/16 00:16:35;;;;;;;2.10;1.80;;;22.40;76.20;;;;;;4969032;28;20465;-46
2023/05/16 00:19:03;;;;;;;2.30;1.97;;;22.40;76.20;;;;;;4967135;28;20476;-49
2023/05/16 00:21:30;;;;;;;1.87;1.70;;;22.40;76.40;;;;;;4965586;28;20497;-46
2023/05/16 00:23:58;;;;;;;3.20;2.10;;;22.40;76.40;;;;;;4966356;28;20908;-49
2023/05/16 00:26:25;;;;;;;2.57;2.30;;;22.40;76.40;;;;;;4968856;28;21004;-47
2023/05/16 00:28:51;;;;;;;3.57;2.17;;;22.40;77.00;;;;;;4971057;28;20925;-47
2023/05/16 00:31:18;;;;;;;3.70;2.50;;;22.40;76.50;;;;;;4961909;28;20473;-50
2023/05/16 00:33:45;;;;;;;2.17;1.97;;;22.40;77.20;;;;;;4970220;28;20834;-48
2023/05/16 00:36:11;;;;;;;2.40;2.20;;;22.40;76.40;;;;;;4966917;28;20459;-48
2023/05/16 00:38:38;;;;;;;2.50;2.00;;;22.40;76.50;;;;;;4965445;28;20470;-47
2023/05/16 00:41:06;;;;;;;2.00;1.77;;;22.30;76.40;;;;;;4965326;28;20763;-46
2023/05/16 00:43:34;;;;;;;2.97;2.23;;;22.30;76.40;;;;;;4968255;28;20451;-46
2023/05/16 00:46:00;;;;;;;2.27;1.87;;;22.30;76.40;;;;;;4972699;28;20462;-45
2023/05/16 00:48:27;;;;;;;2.30;2.10;;;22.30;76.50;;;;;;4977012;28;20489;-46
2023/05/16 00:50:54;;;;;;;3.33;1.90;;;22.30;76.50;;;;;;4972150;28;20465;-48
2023/05/16 00:53:21;;;;;;;2.90;1.83;;;22.30;76.50;;;;;;4975487;28;20461;-46
2023/05/16 00:55:47;;;;;;;2.90;2.27;;;22.30;76.50;;;;;;4971708;28;20474;-52
2023/05/16 00:58:16;;;;;;;3.40;2.17;;;22.30;76.50;;;;;;4975252;28;20461;-46
2023/05/16 01:00:44;;;;;;;2.00;1.80;;;22.30;76.60;;;;;;4963873;28;20480;-46
2023/05/16 01:03:11;;;;;;;2.13;1.93;;;22.30;76.60;;;;;;4964233;28;20454;-50
2023/05/16 01:05:38;;;;;;;3.00;2.22;;;22.30;76.70;;;;;;4956740;28;20961;-46
2023/05/16 01:08:05;;;;;;;2.43;1.80;;;22.30;76.60;;;;;;4956912;28;20206;-48
2023/05/16 01:10:38;;;;;;;3.50;2.40;;;22.30;76.80;;;;;;4969023;28;20485;-48
2023/05/16 01:13:12;;;;;;;3.93;2.50;;;22.20;76.80;;;;;;4969467;28;20472;-46
2023/05/16 01:15:47;;;;;;;1.83;1.73;;;22.20;76.60;;;;;;4960740;28;20551;-46
2023/05/16 01:18:23;;;;;;;1.60;1.50;;;22.20;76.80;;;;;;4968175;28;20477;-46
2023/05/16 01:20:56;;;;;;;2.20;2.10;;;22.20;76.80;;;;;;4973055;28;20547;-46
2023/05/16 01:23:40;;;;;;;2.10;2.00;;;22.20;76.80;;;;;;4969197;28;20473;-46
2023/05/16 01:26:18;;;;;;;2.00;1.90;;;22.20;77.70;;;;;;4970259;28;20957;-48
2023/05/16 01:28:46;;;;;;;2.17;2.03;;;22.20;76.90;;;;;;4971903;28;20468;-48
2023/05/16 01:31:13;;;;;;;2.43;2.07;;;22.20;76.90;;;;;;4970589;28;20461;-46
2023/05/16 01:33:39;;;;;;;2.73;1.70;;;22.20;76.80;;;;;;4970341;28;20473;-48
2023/05/16 01:36:13;;;;;;;3.77;1.77;;;22.20;76.90;;;;;;4974855;28;20454;-47
2023/05/16 01:38:44;;;;;;;2.17;2.00;;;22.20;77.60;;;;;;4969442;28;20466;-46
2023/05/16 01:41:20;;;;;;;2.60;2.17;;;22.20;76.90;;;;;;4970346;28;20453;-46
2023/05/16 01:43:52;;;;;;;2.73;2.07;;;22.20;77.10;;;;;;4969034;28;20965;-48
2023/05/16 01:46:25;;;;;;;2.10;1.57;;;22.20;77.00;;;;;;4954265;28;20472;-50
2023/05/16 01:48:58;;;;;;;1.70;1.60;;;22.20;77.00;;;;;;4971916;28;20461;-50
2023/05/16 01:51:30;;;;;;;1.77;1.63;;;22.20;77.00;;;;;;4973226;28;20217;-48
2023/05/16 01:54:01;;;;;;;2.13;1.67;;;22.20;77.00;;;;;;4971400;28;20464;-46
2023/05/16 01:56:31;;;;;;;3.07;2.20;;;22.20;77.20;;;;;;4968009;28;20468;-46
2023/05/16 01:58:59;;;;;;;2.07;1.87;;;22.10;77.00;;;;;;4970729;28;21051;-47
2023/05/16 02:01:25;;;;;;;2.53;2.33;;;22.20;77.30;;;;;;4969789;28;20849;-46
2023/05/16 02:03:52;;;;;;;2.30;1.93;;;22.10;77.20;;;;;;4971812;28;20462;-46
2023/05/16 02:06:19;;;;;;;2.13;1.70;;;22.10;77.20;;;;;;4973247;28;20465;-46
2023/05/16 02:08:46;;;;;;;2.20;2.00;;;22.10;77.30;;;;;;4968661;28;20462;-49
2023/05/16 02:11:12;;;;;;;1.97;1.60;;;22.10;77.30;;;;;;4968213;28;20489;-48
2023/05/16 02:13:41;;;;;;;2.88;1.92;;;22.10;78.20;;;;;;4972957;28;20464;-46
2023/05/16 02:16:10;;;;;;;2.03;1.83;;;22.10;77.30;;;;;;4972176;28;20613;-48
2023/05/16 02:18:37;;;;;;;2.30;1.73;;;22.10;77.40;;;;;;4970661;28;20905;-47
2023/05/16 02:21:03;;;;;;;1.75;1.65;;;22.10;77.40;;;;;;4966814;28;20455;-48
2023/05/16 02:23:30;;;;;;;1.75;1.65;;;22.10;77.40;;;;;;4972900;28;20194;-50
2023/05/16 02:25:57;;;;;;;2.03;1.80;;;22.10;77.40;;;;;;4969526;28;20245;-48
2023/05/16 02:28:24;;;;;;;2.47;2.20;;;22.10;77.40;;;;;;4969991;28;20488;-50
2023/05/16 02:30:57;;;;;;;1.87;1.77;;;22.10;77.30;;;;;;4955545;28;20873;-45
2023/05/16 02:33:25;;;;;;;2.35;1.92;;;22.10;77.50;;;;;;4965144;28;21308;-48
2023/05/16 02:35:52;;;;;;;2.22;2.03;;;22.10;77.40;;;;;;4972934;28;20293;-48
2023/05/16 02:38:19;;;;;;;2.17;1.97;;;22.10;77.50;;;;;;4968990;28;20229;-47
2023/05/16 02:40:46;;;;;;;2.70;2.07;;;22.00;77.30;;;;;;4969352;28;20849;-50
2023/05/16 02:43:13;;;;;;;2.50;2.30;;;22.00;77.40;;;;;;4970740;28;20553;-46
2023/05/16 02:45:40;;;;;;;2.88;2.03;;;22.00;77.40;;;;;;4971675;28;20807;-47
2023/05/16 02:48:08;;;;;;;1.93;1.73;;;22.00;78.20;;;;;;4972026;28;20276;-46
2023/05/16 02:50:35;;;;;;;2.30;2.00;;;22.00;77.40;;;;;;4964539;28;20481;-47
2023/05/16 02:53:01;;;;;;;1.75;1.55;;;22.00;77.50;;;;;;4969833;28;20462;-48
2023/05/16 02:55:28;;;;;;;3.10;1.70;;;22.00;77.60;;;;;;4971494;28;20198;-47
2023/05/16 02:57:55;;;;;;;1.77;1.65;;;22.00;77.50;;;;;;4970620;28;20548;-51
2023/05/16 03:00:22;;;;;;;1.80;1.70;;;22.00;77.50;;;;;;4968560;28;20198;-48
2023/05/16 03:02:49;;;;;;;1.70;1.60;;;22.00;77.50;;;;;;4970357;28;20470;-50
2023/05/16 03:05:17;;;;;;;2.53;1.73;;;22.00;77.50;;;;;;4969090;28;20465;-46
2023/05/16 03:07:44;;;;;;;2.47;1.70;;;22.00;77.50;;;;;;4971678;28;20551;-46
2023/05/16 03:10:11;;;;;;;3.20;2.20;;;22.00;77.50;;;;;;4963434;28;20481;-47
2023/05/16 03:12:37;;;;;;;2.40;1.43;;;22.00;77.80;;;;;;4957760;28;20465;-48
2023/05/16 03:15:06;;;;;;;2.30;2.10;;;22.00;77.70;;;;;;4968820;28;20462;-50
2023/05/16 03:17:33;;;;;;;2.05;1.60;;;22.00;77.70;;;;;;4971141;28;20965;-45
2023/05/16 03:19:59;;;;;;;2.20;1.90;;;21.90;77.50;;;;;;4970800;28;20647;-47
2023/05/16 03:22:27;;;;;;;2.13;1.60;;;21.90;77.60;;;;;;4971171;28;20544;-46
2023/05/16 03:24:55;;;;;;;2.00;1.80;;;21.90;77.60;;;;;;4969121;28;20205;-48
2023/05/16 03:27:23;;;;;;;2.58;2.05;;;21.90;77.70;;;;;;4968158;28;20985;-47
2023/05/16 03:29:50;;;;;;;2.83;2.10;;;21.90;77.70;;;;;;4968587;28;20634;-46
2023/05/16 03:32:16;;;;;;;1.58;1.48;;;21.90;77.60;;;;;;4968502;28;20462;-49
2023/05/16 03:34:43;;;;;;;2.10;1.73;;;21.90;77.60;;;;;;4971814;28;20201;-47
2023/05/16 03:37:10;;;;;;;1.97;1.63;;;21.90;77.80;;;;;;4970819;28;20246;-46
2023/05/16 03:39:38;;;;;;;1.60;1.50;;;21.90;77.70;;;;;;4963994;28;20891;-49
2023/05/16 03:42:06;;;;;;;1.60;1.35;;;21.90;77.90;;;;;;4967731;28;20662;-48
2023/05/16 03:44:33;;;;;;;1.67;1.58;;;21.90;77.60;;;;;;4965719;28;20277;-48
2023/05/16 03:46:59;;;;;;;1.90;1.80;;;21.90;77.70;;;;;;4969437;28;20655;-46
2023/05/16 03:49:27;;;;;;;1.92;1.65;;;21.90;77.80;;;;;;4969993;28;20475;-47
2023/05/16 03:51:54;;;;;;;2.03;1.77;;;21.90;77.80;;;;;;4970677;28;20293;-48
2023/05/16 03:54:21;;;;;;;2.22;2.00;;;21.80;77.80;;;;;;4970017;28;20194;-49
2023/05/16 03:56:49;;;;;;;1.88;1.77;;;21.90;77.70;;;;;;4969895;28;20198;-49
2023/05/16 03:59:16;;;;;;;2.30;1.73;;;21.80;77.70;;;;;;4967645;28;20203;-51
2023/05/16 04:01:43;;;;;;;2.03;1.60;;;21.80;77.70;;;;;;4969409;28;20466;-48
2023/05/16 04:04:09;;;;;;;2.90;2.55;;;21.80;77.60;;;;;;4964726;28;20194;-49
2023/05/16 04:06:36;;;;;;;2.80;2.45;;;21.80;77.60;;;;;;4963572;28;20229;-46
2023/05/16 04:09:03;;;;;;;1.73;1.63;;;21.80;77.80;;;;;;4956763;28;20202;-47
2023/05/16 04:11:30;;;;;;;2.00;1.80;;;21.80;77.70;;;;;;4967489;28;20820;-46
2023/05/16 04:13:58;;;;;;;1.80;1.60;;;21.80;77.70;;;;;;4969842;28;20201;-49
2023/05/16 04:16:25;;;;;;;1.90;1.80;;;21.80;77.70;;;;;;4968863;28;20461;-46
2023/05/16 04:18:51;;;;;;;2.05;1.90;;;21.80;77.70;;;;;;4967129;28;20194;-50
2023/05/16 04:21:18;;;;;;;1.60;1.50;;;21.80;77.80;;;;;;4966537;28;20213;-50
2023/05/16 04:23:45;;;;;;;1.75;1.63;;;21.80;77.80;;;;;;4959020;28;20202;-48
2023/05/16 04:26:13;;;;;;;1.80;1.70;;;21.80;77.70;;;;;;4965116;28;20217;-47
2023/05/16 04:28:40;;;;;;;2.47;1.65;;;21.80;77.80;;;;;;4969437;28;20666;-47
2023/05/16 04:31:08;;;;;;;1.83;1.50;;;21.80;77.70;;;;;;4965237;28;20218;-45
2023/05/16 04:33:35;;;;;;;1.95;1.85;;;21.80;77.70;;;;;;4969521;28;20209;-47
2023/05/16 04:36:02;;;;;;;1.67;1.50;;;21.80;77.60;;;;;;4963611;28;20195;-47
2023/05/16 04:38:30;;;;;;;1.48;1.35;;;21.80;77.80;;;;;;4965030;28;20237;-46
2023/05/16 04:40:57;;;;;;;1.90;1.80;;;21.70;77.70;;;;;;4963172;28;20627;-48
2023/05/16 04:43:24;;;;;;;2.10;1.90;;;21.80;77.80;;;;;;4968049;28;20288;-46
2023/05/16 04:45:52;;;;;;;2.40;2.20;;;21.80;77.80;;;;;;4963652;28;20614;-49
2023/05/16 04:48:20;;;;;;;3.22;1.80;;;21.80;77.80;;;;;;4953846;28;21059;-46
2023/05/16 04:50:47;;;;;;;2.00;1.80;;;21.70;77.80;;;;;;4955201;28;20321;-50
2023/05/16 04:53:14;;;;;;;1.90;1.80;;;21.70;77.70;;;;;;4961881;28;20198;-49
2023/05/16 04:55:40;;;;;;;1.50;1.40;;;21.70;77.70;;;;;;4969074;28;20194;-47
2023/05/16 04:58:08;;;;;;;1.52;1.42;;;21.70;77.80;;;;;;4967077;28;20209;-46
2023/05/16 05:00:34;;;;;;;1.60;1.38;;;21.70;77.80;;;;;;4968715;28;20237;-48
2023/05/16 05:03:01;;;;;;;2.55;1.60;;;21.70;77.60;;;;;;4975699;28;20268;-48
2023/05/16 05:05:29;;;;;;;1.45;1.20;;;21.70;77.70;;;;;;4968585;28;20662;-48
2023/05/16 05:07:58;;;;;;;1.83;1.73;;;21.70;77.70;;;;;;4963519;28;20202;-52
2023/05/16 05:10:26;;;;;;;1.60;1.40;;;21.70;78.00;;;;;;4966008;28;20228;-47
2023/05/16 05:12:53;;;;;;;1.60;1.50;;;21.70;77.80;;;;;;4967537;28;20190;-46
2023/05/16 05:15:19;;;;;;;1.80;1.70;;;21.70;77.80;;;;;;4965856;28;20201;-47
2023/05/16 05:17:46;;;;;;;2.15;1.95;;;21.60;77.70;;;;;;4968294;28;20198;-47
2023/05/16 05:20:13;;;;;;;2.13;2.00;;;21.70;77.90;;;;;;4968506;28;20194;-46
2023/05/16 05:22:41;;;;;;;2.10;1.90;;;21.70;78.20;;;;;;4969181;28;20700;-47
2023/05/16 05:25:08;;;;;;;1.60;1.50;;;21.70;78.20;;;;;;4967711;28;20213;-46
2023/05/16 05:27:35;;;;;;;1.63;1.53;;;21.70;78.30;;;;;;4966470;28;20205;-46
2023/05/16 05:30:02;;;;;;;1.50;1.40;;;21.70;78.30;;;;;;4972452;28;20469;-49
2023/05/16 05:32:29;;;;;;;1.67;1.58;;;21.70;78.30;;;;;;4969422;28;20194;-46
2023/05/16 05:34:56;;;;;;;1.40;1.30;;;21.70;78.30;;;;;;4973247;28;20257;-48
2023/05/16 05:37:23;;;;;;;1.70;1.50;;;21.70;78.50;;;;;;4969603;28;20218;-46
2023/05/16 05:39:51;;;;;;;2.20;1.50;;;21.70;78.70;;;;;;4968427;28;20201;-45
2023/05/16 05:42:17;;;;;;;2.07;1.70;;;21.70;78.40;;;;;;4971784;28;20472;-47
2023/05/16 05:44:44;;;;;;;1.50;1.30;;;21.70;78.30;;;;;;4972220;28;20548;-47
2023/05/16 05:47:11;;;;;;;1.40;1.30;;;21.70;78.50;;;;;;4971192;28;20465;-46
2023/05/16 05:49:38;;;;;;;1.70;1.60;;;21.70;78.50;;;;;;4965253;28;20198;-46
2023/05/16 05:52:05;;;;;;;1.60;1.43;;;21.70;78.40;;;;;;4964066;28;20485;-46
2023/05/16 05:54:31;;;;;;;2.47;1.60;;;21.70;78.50;;;;;;4969142;28;20461;-46
2023/05/16 05:57:00;;;;;;;1.35;1.25;;;21.70;78.50;;;;;;4970059;28;20821;-45
2023/05/16 05:59:26;;;;;;;1.67;1.58;;;21.70;79.20;;;;;;4968898;28;20198;-46
2023/05/16 06:01:53;;;;;;;1.80;1.58;;;21.70;78.60;;;;;;4967351;28;20565;-46
2023/05/16 06:04:20;;;;;;;2.38;1.45;;;21.70;78.60;;;;;;4971582;28;20204;-50
2023/05/16 06:06:46;;;;;;;3.20;1.70;;;21.70;78.50;;;;;;4970395;28;20198;-47
2023/05/16 06:09:13;;;;;;;1.33;1.20;;;21.80;78.70;;;;;;4970356;28;20469;-46
2023/05/16 06:11:40;;;;;;;1.52;1.42;;;21.80;78.80;;;;;;4970159;28;20924;-47
2023/05/16 06:14:08;;;;;;;2.63;1.67;;;21.80;78.70;;;;;;4973816;28;20198;-46
2023/05/16 06:16:35;;;;;;;3.73;1.23;;;21.80;78.80;;;;;;4971641;28;20469;-47
2023/05/16 06:19:01;;;;;;;1.67;1.57;;;21.80;78.70;;;;;;4968866;28;20461;-47
2023/05/16 06:21:28;;;;;;;1.20;1.07;;;21.80;78.70;;;;;;4970970;28;20453;-48
2023/05/16 06:23:55;;;;;;;1.40;1.30;;;21.90;78.60;;;;;;4969870;28;20477;-47
2023/05/16 06:26:22;;;;;;;3.37;1.23;;;21.90;78.40;;;;;;4966842;28;20453;-47
2023/05/16 06:28:48;;;;;;;1.15;1.05;;;21.90;78.80;;;;;;4968673;28;20462;-48
2023/05/16 06:31:17;;;;;;;2.07;1.87;;;21.90;78.70;;;;;;4965465;28;20673;-46
2023/05/16 06:33:44;;;;;;;1.67;1.23;;;21.90;78.80;;;;;;4973957;28;20460;-46
2023/05/16 06:36:11;;;;;;;1.48;1.35;;;21.90;79.00;;;;;;4968487;28;20873;-46
2023/05/16 06:38:38;;;;;;;1.90;1.77;;;21.90;79.30;;;;;;4970406;28;20194;-48
2023/05/16 06:41:04;;;;;;;2.73;1.50;;;21.90;79.60;;;;;;4967556;28;20480;-49
2023/05/16 06:43:31;;;;;;;1.17;1.07;;;22.00;80.10;;;;;;4973004;28;20450;-46
2023/05/16 06:45:58;;;;;;;1.63;1.40;;;22.00;80.20;;;;;;4967164;28;20466;-46
2023/05/16 06:48:26;;;;;;;2.60;1.37;;;22.00;80.60;;;;;;4970647;28;20465;-51
2023/05/16 06:50:52;;;;;;;2.63;1.20;;;22.00;80.70;;;;;;4972010;28;20569;-48
2023/05/16 06:53:20;;;;;;;2.67;1.60;;;22.00;80.70;;;;;;4970825;28;20466;-50
2023/05/16 06:55:47;;;;;;;1.30;1.20;;;22.00;80.70;;;;;;4968350;28;20714;-52
2023/05/16 06:58:13;;;;;;;1.53;1.20;;;22.00;80.90;;;;;;4972110;28;20950;-46
2023/05/16 07:00:41;;;;;;;3.30;1.10;;;22.00;80.90;;;;;;4966790;28;20815;-48
2023/05/16 07:03:08;;;;;;;1.57;1.47;;;22.00;80.90;;;;;;4971746;28;20877;-47
2023/05/16 07:05:36;;;;;;;1.60;1.17;;;22.00;81.00;;;;;;4970723;28;20949;-46
2023/05/16 07:08:02;;;;;;;1.57;1.47;;;22.00;81.00;;;;;;4971850;28;20990;-47
2023/05/16 07:10:29;;;;;;;1.77;1.30;;;22.00;81.00;;;;;;4967129;28;20949;-49
2023/05/16 07:12:57;;;;;;;1.30;1.20;;;22.00;81.20;;;;;;4970823;28;21437;-53
2023/05/16 07:15:23;;;;;;;1.40;1.30;;;22.10;81.30;;;;;;4969602;28;20502;-51
2023/05/16 07:17:50;;;;;;;1.27;1.07;;;22.00;81.30;;;;;;4971324;28;20842;-46
2023/05/16 07:20:17;;;;;;;2.07;1.40;;;22.10;81.50;;;;;;4972129;28;20461;-51
2023/05/16 07:22:45;;;;;;;1.17;1.07;;;22.10;81.80;;;;;;4971122;28;20454;-48
2023/05/16 07:25:13;;;;;;;2.47;1.37;;;22.00;81.30;;;;;;4964225;28;20468;-46
2023/05/16 07:27:41;;;;;;;1.73;1.60;;;22.10;82.10;;;;;;4966719;28;20881;-49
2023/05/16 07:30:09;;;;;;;1.63;1.20;;;22.10;81.40;;;;;;4967302;28;21054;-48
2023/05/16 07:32:36;;;;;;;1.40;1.00;;;22.10;81.50;;;;;;4970858;28;20489;-46
2023/05/16 07:35:03;;;;;;;1.97;1.30;;;22.10;81.50;;;;;;4969846;28;20453;-53
2023/05/16 07:37:30;;;;;;;1.93;1.13;;;22.10;81.40;;;;;;4970260;28;20489;-49
2023/05/16 07:39:58;;;;;;;1.30;1.20;;;22.10;81.50;;;;;;4959131;28;20843;-49
2023/05/16 07:42:25;;;;;;;1.83;1.20;;;22.10;81.50;;;;;;4968813;28;21030;-48
2023/05/16 07:44:52;;;;;;;1.73;1.30;;;22.20;81.30;;;;;;4964809;28;20473;-52
2023/05/16 07:47:18;;;;;;;1.30;1.20;;;22.20;81.30;;;;;;4966085;28;20465;-57
2023/05/16 07:49:45;;;;;;;2.23;1.77;;;22.20;81.20;;;;;;4970241;28;20461;-51
2023/05/16 07:52:11;;;;;;;1.37;1.23;;;22.20;81.20;;;;;;4969666;28;20918;-50
2023/05/16 07:54:38;;;;;;;2.07;1.67;;;22.20;81.00;;;;;;4971180;28;20461;-52
2023/05/16 07:57:07;;;;;;;2.50;1.27;;;22.20;80.90;;;;;;4950989;28;20466;-49
2023/05/16 07:59:33;;;;;;;1.40;1.20;;;22.30;80.90;;;;;;4964636;28;20489;-49
2023/05/16 08:02:00;;;;;;;1.30;1.20;;;22.30;80.80;;;;;;4969359;28;20492;-51
2023/05/16 08:04:26;;;;;;;2.10;1.50;;;22.30;80.90;;;;;;4965835;28;21134;-49
2023/05/16 08:06:53;;;;;;;1.20;1.07;;;22.30;80.70;;;;;;4966748;28;20458;-49
2023/05/16 08:09:20;;;;;;;1.40;1.30;;;22.30;80.70;;;;;;4963850;28;20556;-49
2023/05/16 08:11:46;;;;;;;1.70;1.47;;;22.30;80.70;;;;;;4965968;28;20484;-48
2023/05/16 08:14:14;;;;;;;1.33;1.20;;;22.30;80.60;;;;;;4970096;28;20593;-49
2023/05/16 08:16:41;;;;;;;1.20;1.10;;;22.30;80.50;;;;;;4971004;28;20994;-48
2023/05/16 08:19:08;;;;;;;1.30;1.03;;;22.30;80.40;;;;;;4965921;28;20462;-49
2023/05/16 08:21:35;;;;;;;1.60;1.40;;;22.40;80.60;;;;;;4956868;28;20469;-48
2023/05/16 08:24:02;;;;;;;1.57;1.47;;;22.40;80.50;;;;;;4968563;28;20469;-48
2023/05/16 08:26:28;;;;;;;1.40;1.00;;;22.40;80.50;;;;;;4964712;28;20465;-48
2023/05/16 08:28:55;;;;;;;1.60;1.10;;;22.40;80.40;;;;;;4968763;28;20484;-50
2023/05/16 08:31:23;;;;;;;2.23;1.30;;;22.40;80.40;;;;;;4968242;28;20997;-50
2023/05/16 08:33:49;;;;;;;1.73;1.20;;;22.40;80.30;;;;;;4956498;28;20822;-51
2023/05/16 08:36:18;;;;;;;1.30;1.17;;;22.40;80.30;;;;;;4952206;28;20497;-48
2023/05/16 08:38:45;;;;;;;1.50;1.00;;;22.40;80.20;;;;;;4958273;28;20457;-50
2023/05/16 08:41:12;;;;;;;1.40;1.00;;;22.40;80.10;;;;;;4958667;28;20804;-48
2023/05/16 08:43:39;;;;;;;1.17;1.07;;;22.40;80.00;;;;;;4967577;28;20458;-48
2023/05/16 08:46:07;;;;;;;1.53;1.23;;;22.40;80.00;;;;;;4962451;28;20466;-49
2023/05/16 08:48:38;;;;;;;1.50;1.27;;;22.40;80.00;;;;;;4964206;28;20965;-50
2023/05/16 08:51:07;;;;;;;1.70;1.50;;;22.40;80.00;;;;;;4971032;28;20473;-49
2023/05/16 08:53:41;;;;;;;1.60;1.40;;;22.40;79.50;;;;;;4966742;28;20470;-48
2023/05/16 08:56:09;;;;;;;1.83;1.40;;;22.40;79.40;;;;;;4967268;28;20517;-48
2023/05/16 08:58:36;;;;;;;2.17;1.47;;;22.40;79.60;;;;;;4965190;28;20484;-47
2023/05/16 09:01:07;;;;;;;3.30;1.40;;;22.40;79.30;;;;;;4963479;28;20517;-51
2023/05/16 09:03:35;;;;;;;2.63;1.10;;;22.40;79.20;;;;;;4951651;28;20604;-52
2023/05/16 09:06:03;;;;;;;1.63;1.33;;;22.40;79.10;;;;;;4959786;28;21070;-51
2023/05/16 09:08:30;;;;;;;2.80;1.27;;;22.40;79.20;;;;;;4969599;28;20487;-50
2023/05/16 09:10:56;;;;;;;1.37;1.20;;;22.40;79.30;;;;;;4971552;28;20813;-48
2023/05/16 09:13:24;;;;;;;1.80;1.60;;;22.40;79.30;;;;;;4972240;28;20864;-50
2023/05/16 09:16:09;;;;;;;1.20;1.00;;;22.40;79.30;;;;;;4973803;28;20461;-47
2023/05/16 09:18:38;;;;;;;2.07;1.10;;;22.40;79.40;;;;;;4967996;28;20472;-52
2023/05/16 09:21:06;;;;;;;2.60;1.00;;;22.40;79.20;;;;;;4972105;28;20457;-46
2023/05/16 09:23:33;;;;;;;3.20;1.23;;;22.40;79.20;;;;;;4969378;28;20469;-48
2023/05/16 09:25:59;;;;;;;4.40;1.53;;;22.40;79.10;;;;;;4970837;28;20465;-48
2023/05/16 09:28:26;;;;;;;1.97;1.60;;;22.40;79.20;;;;;;4971287;28;20465;-47
2023/05/16 09:30:54;;;;;;;5.07;1.07;;;22.40;79.10;;;;;;4971737;28;20957;-49
2023/05/16 09:33:22;;;;;;;1.40;1.13;;;22.40;79.10;;;;;;4970873;28;20571;-50
2023/05/16 09:35:57;;;;;;;2.10;1.50;;;22.50;79.20;;;;;;4973440;28;20470;-48
2023/05/16 09:38:26;;;;;;;1.20;1.00;;;22.50;79.20;;;;;;4971996;28;20484;-49
2023/05/16 09:40:52;;;;;;;2.47;1.10;;;22.50;79.10;;;;;;4971053;28;20500;-49
2023/05/16 09:43:25;;;;;;;3.07;1.47;;;22.50;79.10;;;;;;4971494;28;20461;-48
2023/05/16 09:45:52;;;;;;;1.70;1.20;;;22.50;79.00;;;;;;4966229;28;20461;-49
2023/05/16 09:48:22;;;;;;;2.30;1.33;;;22.50;79.00;;;;;;4972476;28;20465;-51
2023/05/16 09:50:51;;;;;;;3.10;1.37;;;22.50;78.90;;;;;;4972357;28;20483;-49
2023/05/16 09:53:26;;;;;;;1.40;1.10;;;22.50;78.90;;;;;;4972610;28;20865;-48
2023/05/16 09:56:00;;;;;;;1.40;1.10;;;22.50;78.90;;;;;;4965215;28;20511;-47
2023/05/16 09:58:29;;;;;;;1.70;1.10;;;22.50;78.90;;;;;;4965515;28;20500;-48
2023/05/16 10:00:56;;;;;;;1.53;1.00;;;22.50;78.80;;;;;;4969243;28;20460;-51
2023/05/16 10:03:24;;;;;;;1.47;1.37;;;22.50;78.70;;;;;;4966328;28;21051;-48
2023/05/16 10:05:52;;;;;;;1.37;1.20;;;22.50;78.90;;;;;;4965032;28;22282;-50
2023/05/16 10:08:21;;;;;;;1.77;1.40;;;22.50;79.30;;;;;;4969535;28;20465;-46
2023/05/16 10:10:50;;;;;;;2.40;1.27;;;22.50;79.30;;;;;;4968693;28;20544;-48
2023/05/16 10:13:18;;;;;;;3.20;1.30;;;22.50;71.70;;;;;;4972011;28;20481;-48
2023/05/16 10:15:46;;;;;;;4.60;1.90;;;22.30;70.00;;;;;;4971055;28;20461;-48
2023/05/16 10:18:14;;;;;;;4.10;1.37;;;22.30;69.00;;;;;;4969709;28;20528;-47
2023/05/16 10:20:44;;;;;;;4.10;1.63;;;22.20;68.70;;;;;;4969952;28;20468;-46
2023/05/16 10:23:17;;;;;;;4.63;1.20;;;22.20;69.00;;;;;;4967077;28;20461;-47
2023/05/16 10:25:46;;;;;;;2.63;1.33;;;22.20;65.80;;;;;;4970651;28;20483;-49
2023/05/16 10:28:15;;;;;;;2.13;1.10;;;22.10;63.50;;;;;;4972849;28;20461;-48
2023/05/16 10:30:43;;;;;;;2.47;1.37;;;22.10;62.90;;;;;;4968237;28;20458;-47
2023/05/16 10:33:12;;;;;;;3.00;1.43;;;22.10;63.50;;;;;;4967669;28;20564;-48
2023/05/16 10:35:38;;;;;;;2.27;1.33;;;22.10;64.50;;;;;;4971949;28;20470;-46
2023/05/16 10:38:07;;;;;;;2.63;1.30;;;22.10;65.30;;;;;;4970504;28;20481;-47
2023/05/16 10:40:35;;;;;;;1.57;1.00;;;22.10;65.90;;;;;;4968130;28;20461;-47
2023/05/16 10:43:07;;;;;;;4.47;1.23;;;22.20;67.00;;;;;;4965057;28;20477;-49
2023/05/16 10:45:34;;;;;;;1.30;1.20;;;22.20;66.80;;;;;;4969566;28;20465;-47
2023/05/16 10:48:03;;;;;;;2.83;1.13;;;22.20;67.30;;;;;;4969929;28;20465;-47
2023/05/16 10:50:35;;;;;;;5.10;1.20;;;22.20;67.30;;;;;;4971170;28;20501;-48
2023/05/16 10:53:29;;;;;;;2.97;1.20;;;22.20;67.80;;;;;;4969632;28;20485;-47
2023/05/16 10:56:11;;;;;;;3.27;1.03;;;22.20;68.00;;;;;;4964541;28;20462;-57
2023/05/16 10:58:47;;;;;;;2.33;1.00;;;22.30;68.00;;;;;;4962373;28;20458;-54
2023/05/16 11:01:19;;;;;;;4.33;1.27;;;22.30;68.70;;;;;;4963891;28;20465;-52
2023/05/16 11:04:07;;;;;;;2.20;0.90;;;22.30;69.00;;;;;;4970001;28;20497;-51
2023/05/16 11:06:35;;;;;;;2.90;1.13;;;22.40;69.30;;;;;;4967527;28;20458;-54
2023/05/16 11:09:08;;;;;;;1.53;0.97;;;22.40;69.60;;;;;;4968033;28;20469;-49
2023/05/16 11:11:45;;;;;;;2.83;1.60;;;22.40;69.50;;;;;;4969665;28;20453;-55
2023/05/16 11:14:20;;;;;;;4.07;2.13;;;22.40;69.80;;;;;;4967863;28;20518;-52
2023/05/16 11:16:50;;;;;;;4.30;1.10;;;22.40;69.90;;;;;;4971568;28;20469;-56
2023/05/16 11:19:30;;;;;;;3.37;1.20;;;22.50;70.00;;;;;;4972481;28;20544;-52
2023/05/16 11:22:13;;;;;;;1.80;0.90;;;22.50;70.00;;;;;;4970111;28;20544;-51
2023/05/16 11:24:50;;;;;;;2.57;1.10;;;22.50;70.00;;;;;;4964163;28;20965;-49
2023/05/16 11:27:22;;;;;;;1.33;0.93;;;22.60;70.30;;;;;;4969090;28;20498;-49
2023/05/16 11:29:50;;;;;;;1.83;0.90;;;22.60;70.30;;;;;;4968824;28;20501;-49
2023/05/16 11:32:20;;;;;;;2.60;1.77;;;22.60;70.30;;;;;;4966506;28;20482;-50
2023/05/16 11:34:48;;;;;;;3.33;1.13;;;22.60;64.40;;;;;;4971783;28;20858;-53
2023/05/16 11:37:14;;;;;;;4.13;1.20;;;22.50;64.00;;;;;;4974972;28;20499;-47
2023/05/16 11:39:41;;;;;;;2.43;1.00;;;22.50;66.40;;;;;;4969657;28;21035;-48
2023/05/16 11:42:08;;;;;;;3.00;1.00;;;22.60;67.30;;;;;;4970418;28;20445;-50
2023/05/16 11:44:35;;;;;;;1.77;0.90;;;22.70;67.60;;;;;;4969568;28;20493;-52
2023/05/16 11:47:03;;;;;;;3.40;1.20;;;22.70;67.60;;;;;;4959190;28;20989;-55
2023/05/16 11:49:30;;;;;;;1.93;1.10;;;22.70;67.70;;;;;;4967871;28;20799;-47
2023/05/16 11:51:57;;;;;;;1.77;0.83;;;22.80;67.90;;;;;;4967685;28;20849;-47
2023/05/16 11:54:24;;;;;;;4.30;1.00;;;22.80;68.20;;;;;;4966697;28;22967;-47
2023/05/16 11:56:51;;;;;;;1.53;0.93;;;22.90;68.50;;;;;;4969168;28;20460;-47
2023/05/16 11:59:19;;;;;;;2.40;0.80;;;22.90;68.50;;;;;;4965362;28;20462;-48
2023/05/16 12:01:47;;;;;;;2.97;1.10;;;23.00;68.70;;;;;;4968296;28;20458;-51
2023/05/16 12:04:16;;;;;;;3.53;1.10;;;23.00;68.70;;;;;;4968767;28;20573;-48
2023/05/16 12:06:44;;;;;;;2.23;1.00;;;23.10;69.00;;;;;;4970631;28;20988;-47
2023/05/16 12:09:13;;;;;;;2.73;1.10;;;23.10;68.90;;;;;;4969611;28;20465;-50
2023/05/16 12:11:40;;;;;;;3.27;0.90;;;23.10;69.10;;;;;;4964308;28;20961;-55
2023/05/16 12:14:08;;;;;;;1.77;0.83;;;23.10;68.90;;;;;;4968433;28;20485;-50
2023/05/16 12:16:36;;;;;;;1.70;0.87;;;23.20;69.10;;;;;;4964509;28;20496;-52
2023/05/16 12:19:04;;;;;;;1.53;0.83;;;23.20;69.40;;;;;;4968277;28;20835;-52
2023/05/16 12:21:32;;;;;;;5.40;1.17;;;23.30;69.50;;;;;;4969935;28;20450;-49
2023/05/16 12:24:00;;;;;;;2.10;1.00;;;23.30;69.60;;;;;;4971390;28;20477;-54
2023/05/16 12:26:29;;;;;;;3.10;0.97;;;23.30;69.40;;;;;;4970820;28;20461;-54
2023/05/16 12:28:59;;;;;;;1.37;0.90;;;23.30;69.80;;;;;;4969829;28;20461;-59
2023/05/16 12:31:26;;;;;;;2.00;0.93;;;23.30;69.80;;;;;;4962011;28;20461;-55
2023/05/16 12:33:53;;;;;;;4.90;1.20;;;23.40;69.90;;;;;;4965304;28;20477;-50
2023/05/16 12:36:20;;;;;;;2.97;1.00;;;23.40;69.90;;;;;;4968754;28;20489;-54
2023/05/16 12:38:48;;;;;;;2.60;1.00;;;23.40;69.90;;;;;;4969139;28;20470;-51
2023/05/16 12:41:18;;;;;;;2.00;0.97;;;23.40;69.60;;;;;;4970486;28;20468;-48
2023/05/16 12:43:45;;;;;;;2.30;1.30;;;23.50;69.90;;;;;;4969474;28;20540;-48
2023/05/16 12:46:12;;;;;;;2.50;1.37;;;23.40;67.10;;;;;;4963382;28;20520;-53
2023/05/16 12:48:40;;;;;;;1.93;0.83;;;23.30;65.80;;;;;;4962649;28;20469;-50
2023/05/16 12:51:14;;;;;;;1.67;0.90;;;23.30;67.30;;;;;;4959789;28;20475;-52
2023/05/16 12:53:42;;;;;;;2.10;1.10;;;23.30;67.70;;;;;;4958430;28;20509;-52